Nearby METAR Reports

 

ENCN - Kristiansand/Kje, Norway
Distance from station: P 17km
Päivitetty: 10/04/2020 09:50
Vaihetelvaa
Vaihetelvaa
 Tuulen suunta varies
Tuuli: varies 4 km/h
Lämpötila: 4°C
Kastepiste: -3°C
Kosteus: 61%
Ilmanpaine: 1026 hPa
Clouds: Vaihetelvaa
Visibility: 10 km
Cloud details: Puolipilvistä 3353 m
Enimmäkseen pilvistä 4572 m
Vaihetelvaa 5486 m
2020/04/10 07:50 ENCN 100750Z AUTO VRB02KT 9999 SCT110/// BKN150/// OVC180/// 04/M03 Q1026
EKSN - Sindal Airport, Denmark
Distance from station: IKA 145km
Päivitetty: 08/04/2020 14:50
NOT Current
Selkeätä
Selkeätä
 Tuulen suunta LLO
Tuuli: LLO 37 km/h
Lämpötila: 16°C
Kastepiste: 2°C
Kosteus: 39%
Ilmanpaine: 1023 hPa
Yhteenveto: Selkeätä
Visibility: greater than 10 km
2020/04/08 12:50 EKSN 081250Z 25020KT CAVOK 16/02 Q1023
 
EKYT - Alborg, Denmark
Distance from station: KA 153km
Päivitetty: 10/04/2020 09:50
Few Clouds
Few Clouds
 Tuulen suunta L
Tuuli: L 15 km/h
Lämpötila: 7°C
Wind Chill: 4°C
Kastepiste: 3°C
Kosteus: 76%
Ilmanpaine: 1026 hPa
Clouds: Few Clouds
Visibility: 10 km
Cloud details: Few Clouds 5486 m
2020/04/10 07:50 EKYT 100750Z AUTO 28008KT 9999 FEW180/// 07/03 Q1026
ENSN - Skien/Geiterygge, Norway
Distance from station: KO 153km
Päivitetty: 09/11/2015 09:50
NOT Current
Selkeätä
Selkeätä
 Tuulen suunta ELO
Tuuli: ELO 19 km/h, Puuskatuuli: 41 km/h
Lämpötila: 7°C
Wind Chill: 4°C
Kastepiste: 3°C
Kosteus: 76%
Ilmanpaine: 1000 hPa
Yhteenveto: Selkeätä
Visibility: greater than 10 km
2015/11/09 08:50 ENSN 090850Z 20010G22KT 150V240 CAVOK 07/03 Q1000
 
ENZV - Stavanger/Sola(A, Norway
Distance from station: LU 166km
Päivitetty: 10/04/2020 09:50
Enimmäkseen pilvistä
Enimmäkseen pilvistä
 Tuulen suunta PLU
Tuuli: PLU 15 km/h
Lämpötila: 5°C
Wind Chill: 2°C
Kastepiste: -2°C
Kosteus: 61%
Ilmanpaine: 1028 hPa
Clouds: Enimmäkseen pilvistä
Visibility: 10 km
Cloud details: Puolipilvistä 1219 m
Enimmäkseen pilvistä 4877 m
2020/04/10 07:50 ENZV 100750Z 33008KT 9999 SCT040 BKN160 05/M02 Q1028 NOSIG
ENNO - Notodden, Norway
Distance from station: PKO 182km
Päivitetty: 06/04/2020 11:50
NOT Current
Nearby showers, Puolipilvistä
Nearby showers, Puolipilvistä
 Tuulen suunta L
Tuuli: L 6 km/h
Lämpötila: 7°C
Kastepiste: 2°C
Kosteus: 71%
Ilmanpaine: 1021 hPa
Yhteenveto: Nearby Showers
Clouds: Puolipilvistä
Visibility: 10 km
Cloud details: Puolipilvistä 853 m
2020/04/06 09:50 ENNO 060950Z 27003KT 9999 VCSH SCT028 07/02 Q1021
 
ENTO - Torp (civ/Nor-Af, Norway
Distance from station: KO 183km
Päivitetty: 10/04/2020 09:50
Selkeätä
Selkeätä
 Tuulen suunta P
Tuuli: P 17 km/h
Lämpötila: 5°C
Wind Chill: 2°C
Kastepiste: -7°C
Kosteus: 42%
Ilmanpaine: 1025 hPa
Yhteenveto: Selkeätä
Visibility: greater than 10 km
2020/04/10 07:50 ENTO 100750Z 01009KT CAVOK 05/M07 Q1025 NOSIG
EKKA - Karup (dan-Afb), Denmark
Distance from station: EKA 209km
Päivitetty: 10/04/2020 09:50
Puolipilvistä
Puolipilvistä
 Tuulen suunta LLU
Tuuli: LLU 24 km/h
Lämpötila: 7°C
Wind Chill: 3°C
Kastepiste: 1°C
Kosteus: 66%
Ilmanpaine: 1027 hPa
Clouds: Puolipilvistä
Visibility: 10 km
Cloud details: Few Clouds 671 m
Puolipilvistä 4877 m
2020/04/10 07:50 EKKA 100750Z AUTO 30013KT 9999 FEW022/// SCT160/// 07/01 Q1027
 
ENHD - Haugesund/Karmoy, Norway
Distance from station: LU 216km
Päivitetty: 10/04/2020 09:50
Few Clouds
Few Clouds
 Tuulen suunta P
Tuuli: P 11 km/h
Lämpötila: 6°C
Wind Chill: 4°C
Kastepiste: -3°C
Kosteus: 53%
Ilmanpaine: 1028 hPa
Clouds: Few Clouds
Visibility: 10 km
Cloud details: Few Clouds 3962 m
2020/04/10 07:50 ENHD 100750Z AUTO 36006KT 9999 FEW130/// 06/M03 Q1028
ENRY - Rygge (nor-Afb), Norway
Distance from station: KO 216km
Päivitetty: 10/04/2020 07:50
NOT Current
Enimmäkseen pilvistä
Enimmäkseen pilvistä
 Tuulen suunta varies
Tuuli: varies 2 km/h
Lämpötila: 0°C
Kastepiste: -4°C
Kosteus: 75%
Ilmanpaine: 1026 hPa
Clouds: Enimmäkseen pilvistä
Visibility: 10 km
Cloud details: Few Clouds 3658 m
Enimmäkseen pilvistä 4572 m
2020/04/10 05:50 ENRY 100550Z AUTO VRB01KT 9999NDV FEW120/// BKN150/// 00/M04 Q1026
 
ESGP - Goteborg/Save (a, Sweden
Distance from station: I 230km
Päivitetty: 02/01/2017 11:20
NOT Current
Selkeätä
Selkeätä
 Tuulen suunta calm
Tuuli: Tyyntä
Lämpötila: -2°C
Kastepiste: -4°C
Kosteus: 86%
Ilmanpaine: 1012 hPa
Clouds: Selkeätä
Visibility: 10 km
2017/01/02 10:20 ESGP 021020Z AUTO 00000KT 9999 NCD M02/M04 Q1012
EKVJ - Stauning Airport, Denmark
Distance from station: E 233km
Päivitetty: 10/04/2020 09:50
Enimmäkseen pilvistä
Enimmäkseen pilvistä
 Tuulen suunta LU
Tuuli: LU 22 km/h
Lämpötila: 7°C
Wind Chill: 4°C
Kastepiste: 4°C
Kosteus: 81%
Ilmanpaine: 1027 hPa
Clouds: Enimmäkseen pilvistä
Visibility: 10 km
Cloud details: Puolipilvistä 762 m
Enimmäkseen pilvistä 7620 m
2020/04/10 07:50 EKVJ 100750Z 31012KT 9999 SCT025 BKN250 07/04 Q1027
 
ENSO - Stord/Soerstokke, Norway
Distance from station: LU 246km
Päivitetty: 07/04/2020 14:50
NOT Current
Few Clouds
Few Clouds
 Tuulen suunta E
Tuuli: E 17 km/h
Lämpötila: 11°C
Kastepiste: 3°C
Kosteus: 58%
Ilmanpaine: 1029 hPa
Clouds: Few Clouds
Visibility: 10 km
Cloud details: Few Clouds 914 m
2020/04/07 12:50 ENSO 071250Z 19009KT 140V260 9999 FEW030 11/03 Q1029
EKAH - Tirstrup (civ/Mi, Denmark
Distance from station: KA 252km
Päivitetty: 10/04/2020 09:50
Selkeätä
Selkeätä
 Tuulen suunta L
Tuuli: L 13 km/h
Lämpötila: 7°C
Wind Chill: 5°C
Kastepiste: 1°C
Kosteus: 66%
Ilmanpaine: 1026 hPa
Clouds: Selkeätä
Visibility: 10 km
2020/04/10 07:50 EKAH 100750Z AUTO 28007KT 9999NDV NCD 07/01 Q1026
 
ESGT - Trollhattan (pvt, Sweden
Distance from station: I 255km
Päivitetty: 10/04/2020 09:50
Vaihetelvaa
Vaihetelvaa
 Tuulen suunta calm
Tuuli: Tyyntä
Lämpötila: 4°C
Kastepiste: -1°C
Kosteus: 70%
Ilmanpaine: 1025 hPa
Clouds: Vaihetelvaa
Visibility: 10 km
Cloud details: Vaihetelvaa 3962 m
2020/04/10 07:50 ESGT 100750Z AUTO 00000KT 9999 OVC130/// 04/M01 Q1025
ESGG - Goteborg/Landvet, Sweden
Distance from station: I 257km
Päivitetty: 10/04/2020 09:50
Selkeätä
Selkeätä
 Tuulen suunta ELO
Tuuli: ELO 7 km/h
Lämpötila: 6°C
Wind Chill: 4°C
Kastepiste: -1°C
Kosteus: 61%
Ilmanpaine: 1024 hPa
Yhteenveto: Selkeätä
Visibility: greater than 10 km
2020/04/10 07:50 ESGG 100750Z 20004KT CAVOK 06/M01 Q1024
 
EKBI - Billund Airport, Denmark
Distance from station: EKA 269km
Päivitetty: 10/04/2020 09:50
Puolipilvistä
Puolipilvistä
 Tuulen suunta LLU
Tuuli: LLU 22 km/h
Lämpötila: 6°C
Wind Chill: 2°C
Kastepiste: 1°C
Kosteus: 71%
Ilmanpaine: 1027 hPa
Clouds: Puolipilvistä
Visibility: 10 km
Cloud details: Puolipilvistä 671 m
2020/04/10 07:50 EKBI 100750Z AUTO 30012KT 9999 SCT022/// 06/01 Q1027
EKHN - Horns Rev B Heli, Denmark
Distance from station: E 274km
Päivitetty: 09/08/2016 14:20
NOT Current
Few Clouds
Few Clouds
 Tuulen suunta LLU
Tuuli: LLU 50 km/h, Puuskatuuli: 72 km/h
Lämpötila: 14°C
Kastepiste: 10°C
Kosteus: 77%
Ilmanpaine: 1018 hPa
Clouds: Few Clouds
Visibility: 10 km
Cloud details: Few Clouds 1158 m
Few Clouds 2438 m
2016/08/09 12:20 EKHN 091220Z AUTO 29027G39KT 270V340 9999NDV FEW038/// FEW080/// 14/10 Q1018
 
ESIB - Satenas (swe-Afb, Sweden
Distance from station: I 277km
Päivitetty: 10/04/2020 09:50
Puolipilvistä
Puolipilvistä
 Tuulen suunta I
Tuuli: I 6 km/h
Lämpötila: 5°C
Kastepiste: -1°C
Kosteus: 66%
Ilmanpaine: 1024 hPa
Clouds: Puolipilvistä
Visibility: 10 km
Cloud details: Few Clouds 5182 m
Puolipilvistä 6096 m
2020/04/10 07:50 ESIB 100750Z AUTO 08003KT 9999 FEW170/// SCT200/// 05/M01 Q1024
EKHR - Horns Rev B Heli, Denmark
Distance from station: E 282km
Päivitetty: 04/10/2016 06:20
NOT Current
Selkeätä
Selkeätä
 Tuulen suunta I
Tuuli: I 4 km/h
Lämpötila: 11°C
Kastepiste: -49°C
Kosteus: 0%
Ilmanpaine: 1038 hPa
Clouds: Selkeätä
Visibility: 10 km
2016/10/04 04:20 EKHR 040420Z AUTO 08002KT 9999NDV NCD 11/M49 Q1038